sensor_id;sensor_type;location;lat;lon;timestamp;P1;durP1;ratioP1;P2;durP2;ratioP2
20593;SDS011;10455;48.732;10.266;2023-04-28T00:01:02;12.30;;;11.13;;
20593;SDS011;10455;48.732;10.266;2023-04-28T00:06:04;10.63;;;9.57;;
20593;SDS011;10455;48.732;10.266;2023-04-28T00:11:09;11.87;;;10.77;;
20593;SDS011;10455;48.732;10.266;2023-04-28T00:16:11;10.50;;;9.50;;
20593;SDS011;10455;48.732;10.266;2023-04-28T00:21:13;10.40;;;9.30;;
20593;SDS011;10455;48.732;10.266;2023-04-28T00:26:18;9.90;;;8.90;;
20593;SDS011;10455;48.732;10.266;2023-04-28T00:31:20;9.70;;;8.70;;
20593;SDS011;10455;48.732;10.266;2023-04-28T00:36:22;9.57;;;8.67;;
20593;SDS011;10455;48.732;10.266;2023-04-28T00:41:26;10.10;;;9.10;;
20593;SDS011;10455;48.732;10.266;2023-04-28T00:46:29;9.97;;;8.20;;
20593;SDS011;10455;48.732;10.266;2023-04-28T00:51:32;9.90;;;8.07;;
20593;SDS011;10455;48.732;10.266;2023-04-28T00:56:35;7.53;;;6.83;;
20593;SDS011;10455;48.732;10.266;2023-04-28T01:01:37;10.03;;;7.93;;
20593;SDS011;10455;48.732;10.266;2023-04-28T01:06:40;8.40;;;7.60;;
20593;SDS011;10455;48.732;10.266;2023-04-28T01:11:44;8.80;;;8.10;;
20593;SDS011;10455;48.732;10.266;2023-04-28T01:16:45;9.13;;;8.33;;
20593;SDS011;10455;48.732;10.266;2023-04-28T01:21:48;8.63;;;7.93;;
20593;SDS011;10455;48.732;10.266;2023-04-28T01:26:51;9.50;;;8.57;;
20593;SDS011;10455;48.732;10.266;2023-04-28T01:31:53;9.93;;;8.87;;
20593;SDS011;10455;48.732;10.266;2023-04-28T01:36:55;10.43;;;8.63;;
20593;SDS011;10455;48.732;10.266;2023-04-28T01:41:58;12.27;;;9.17;;
20593;SDS011;10455;48.732;10.266;2023-04-28T01:47:01;9.07;;;8.17;;
20593;SDS011;10455;48.732;10.266;2023-04-28T01:52:03;9.63;;;8.83;;
20593;SDS011;10455;48.732;10.266;2023-04-28T01:57:07;10.80;;;9.70;;
20593;SDS011;10455;48.732;10.266;2023-04-28T02:02:09;9.80;;;8.90;;
20593;SDS011;10455;48.732;10.266;2023-04-28T02:07:11;10.13;;;9.07;;
20593;SDS011;10455;48.732;10.266;2023-04-28T02:12:14;11.23;;;10.33;;
20593;SDS011;10455;48.732;10.266;2023-04-28T02:17:26;11.10;;;10.10;;
20593;SDS011;10455;48.732;10.266;2023-04-28T02:22:30;11.70;;;10.50;;
20593;SDS011;10455;48.732;10.266;2023-04-28T02:27:34;11.37;;;10.27;;
20593;SDS011;10455;48.732;10.266;2023-04-28T02:32:37;12.13;;;10.90;;
20593;SDS011;10455;48.732;10.266;2023-04-28T02:37:39;16.27;;;14.70;;
20593;SDS011;10455;48.732;10.266;2023-04-28T02:42:42;19.10;;;17.13;;
20593;SDS011;10455;48.732;10.266;2023-04-28T02:47:44;29.03;;;23.73;;
20593;SDS011;10455;48.732;10.266;2023-04-28T02:52:46;29.93;;;23.73;;
20593;SDS011;10455;48.732;10.266;2023-04-28T02:57:49;39.40;;;31.60;;
20593;SDS011;10455;48.732;10.266;2023-04-28T03:02:51;50.03;;;34.47;;
20593;SDS011;10455;48.732;10.266;2023-04-28T03:07:53;48.43;;;32.47;;
20593;SDS011;10455;48.732;10.266;2023-04-28T03:12:57;27.73;;;23.30;;
20593;SDS011;10455;48.732;10.266;2023-04-28T03:17:59;38.20;;;29.47;;
20593;SDS011;10455;48.732;10.266;2023-04-28T03:23:00;38.17;;;30.07;;
20593;SDS011;10455;48.732;10.266;2023-04-28T03:28:04;27.80;;;22.90;;
20593;SDS011;10455;48.732;10.266;2023-04-28T03:33:06;27.37;;;23.60;;
20593;SDS011;10455;48.732;10.266;2023-04-28T03:38:07;30.23;;;24.77;;
20593;SDS011;10455;48.732;10.266;2023-04-28T03:43:11;30.23;;;23.27;;
20593;SDS011;10455;48.732;10.266;2023-04-28T03:48:13;36.67;;;28.37;;
20593;SDS011;10455;48.732;10.266;2023-04-28T03:53:15;34.77;;;27.30;;
20593;SDS011;10455;48.732;10.266;2023-04-28T03:58:18;30.67;;;24.67;;
20593;SDS011;10455;48.732;10.266;2023-04-28T04:03:20;27.83;;;24.70;;
20593;SDS011;10455;48.732;10.266;2023-04-28T04:08:25;32.37;;;26.73;;
20593;SDS011;10455;48.732;10.266;2023-04-28T04:13:28;33.57;;;27.47;;
20593;SDS011;10455;48.732;10.266;2023-04-28T04:18:30;28.60;;;24.23;;
20593;SDS011;10455;48.732;10.266;2023-04-28T04:23:32;25.23;;;22.13;;
20593;SDS011;10455;48.732;10.266;2023-04-28T04:28:35;24.40;;;19.10;;
20593;SDS011;10455;48.732;10.266;2023-04-28T04:33:37;24.77;;;21.00;;
20593;SDS011;10455;48.732;10.266;2023-04-28T04:38:39;25.50;;;21.93;;
20593;SDS011;10455;48.732;10.266;2023-04-28T04:43:42;35.50;;;26.93;;
20593;SDS011;10455;48.732;10.266;2023-04-28T04:48:44;29.77;;;24.13;;
20593;SDS011;10455;48.732;10.266;2023-04-28T04:53:46;24.60;;;20.67;;
20593;SDS011;10455;48.732;10.266;2023-04-28T04:58:50;21.20;;;18.37;;
20593;SDS011;10455;48.732;10.266;2023-04-28T05:03:52;28.30;;;24.97;;
20593;SDS011;10455;48.732;10.266;2023-04-28T05:08:55;22.57;;;20.17;;
20593;SDS011;10455;48.732;10.266;2023-04-28T05:13:59;16.60;;;14.97;;
20593;SDS011;10455;48.732;10.266;2023-04-28T05:19:01;16.73;;;15.03;;
20593;SDS011;10455;48.732;10.266;2023-04-28T05:24:03;15.17;;;12.70;;
20593;SDS011;10455;48.732;10.266;2023-04-28T05:29:07;12.67;;;11.17;;
20593;SDS011;10455;48.732;10.266;2023-04-28T05:34:09;12.50;;;11.20;;
20593;SDS011;10455;48.732;10.266;2023-04-28T05:39:11;14.60;;;13.10;;
20593;SDS011;10455;48.732;10.266;2023-04-28T05:44:15;12.33;;;11.03;;
20593;SDS011;10455;48.732;10.266;2023-04-28T05:49:17;14.43;;;12.93;;
20593;SDS011;10455;48.732;10.266;2023-04-28T05:54:18;16.87;;;15.27;;
20593;SDS011;10455;48.732;10.266;2023-04-28T05:59:22;18.80;;;15.00;;
20593;SDS011;10455;48.732;10.266;2023-04-28T06:04:24;16.20;;;14.50;;
20593;SDS011;10455;48.732;10.266;2023-04-28T06:09:26;19.27;;;17.17;;
20593;SDS011;10455;48.732;10.266;2023-04-28T06:14:30;21.30;;;19.00;;
20593;SDS011;10455;48.732;10.266;2023-04-28T06:19:32;25.70;;;20.77;;
20593;SDS011;10455;48.732;10.266;2023-04-28T06:24:34;24.53;;;19.97;;
20593;SDS011;10455;48.732;10.266;2023-04-28T06:29:37;22.80;;;20.27;;
20593;SDS011;10455;48.732;10.266;2023-04-28T06:34:39;25.10;;;21.57;;
20593;SDS011;10455;48.732;10.266;2023-04-28T06:39:42;29.80;;;25.30;;
20593;SDS011;10455;48.732;10.266;2023-04-28T06:44:45;27.97;;;24.97;;
20593;SDS011;10455;48.732;10.266;2023-04-28T06:49:47;32.50;;;28.93;;
20593;SDS011;10455;48.732;10.266;2023-04-28T06:54:49;31.80;;;28.33;;
20593;SDS011;10455;48.732;10.266;2023-04-28T06:59:53;31.33;;;28.13;;
20593;SDS011;10455;48.732;10.266;2023-04-28T07:04:54;33.53;;;29.83;;
20593;SDS011;10455;48.732;10.266;2023-04-28T07:09:56;33.73;;;30.10;;
20593;SDS011;10455;48.732;10.266;2023-04-28T07:15:01;39.63;;;33.33;;
20593;SDS011;10455;48.732;10.266;2023-04-28T07:20:03;38.53;;;34.43;;
20593;SDS011;10455;48.732;10.266;2023-04-28T07:25:06;44.90;;;37.40;;
20593;SDS011;10455;48.732;10.266;2023-04-28T07:30:10;41.63;;;35.80;;
20593;SDS011;10455;48.732;10.266;2023-04-28T07:35:12;40.73;;;36.40;;
20593;SDS011;10455;48.732;10.266;2023-04-28T07:40:14;37.90;;;34.03;;
20593;SDS011;10455;48.732;10.266;2023-04-28T07:45:17;37.33;;;33.47;;
20593;SDS011;10455;48.732;10.266;2023-04-28T07:50:19;36.63;;;32.70;;
20593;SDS011;10455;48.732;10.266;2023-04-28T07:55:22;51.77;;;43.20;;
20593;SDS011;10455;48.732;10.266;2023-04-28T08:00:25;50.67;;;41.87;;
20593;SDS011;10455;48.732;10.266;2023-04-28T08:05:27;47.80;;;38.57;;
20593;SDS011;10455;48.732;10.266;2023-04-28T08:10:30;46.17;;;38.37;;
20593;SDS011;10455;48.732;10.266;2023-04-28T08:15:34;43.00;;;34.53;;
20593;SDS011;10455;48.732;10.266;2023-04-28T08:20:36;43.60;;;34.07;;
20593;SDS011;10455;48.732;10.266;2023-04-28T08:25:38;51.23;;;37.60;;
20593;SDS011;10455;48.732;10.266;2023-04-28T08:30:41;35.73;;;31.90;;
20593;SDS011;10455;48.732;10.266;2023-04-28T08:35:43;36.30;;;32.37;;
20593;SDS011;10455;48.732;10.266;2023-04-28T08:40:45;41.20;;;32.53;;
20593;SDS011;10455;48.732;10.266;2023-04-28T08:45:48;35.07;;;24.47;;
20593;SDS011;10455;48.732;10.266;2023-04-28T08:50:51;33.27;;;23.50;;
20593;SDS011;10455;48.732;10.266;2023-04-28T08:55:54;33.70;;;22.60;;
20593;SDS011;10455;48.732;10.266;2023-04-28T09:00:58;27.13;;;15.23;;
20593;SDS011;10455;48.732;10.266;2023-04-28T09:06:01;0.30;;;0.30;;
20593;SDS011;10455;48.732;10.266;2023-04-28T09:11:07;0.20;;;0.20;;
20593;SDS011;10455;48.732;10.266;2023-04-28T09:16:11;0.23;;;0.23;;
20593;SDS011;10455;48.732;10.266;2023-04-28T09:21:13;0.20;;;0.20;;
20593;SDS011;10455;48.732;10.266;2023-04-28T09:26:16;0.20;;;0.20;;
20593;SDS011;10455;48.732;10.266;2023-04-28T09:31:23;0.20;;;0.20;;
20593;SDS011;10455;48.732;10.266;2023-04-28T09:36:26;0.20;;;0.20;;
20593;SDS011;10455;48.732;10.266;2023-04-28T09:41:36;0.20;;;0.20;;
20593;SDS011;10455;48.732;10.266;2023-04-28T09:46:41;0.20;;;0.20;;
20593;SDS011;10455;48.732;10.266;2023-04-28T09:51:43;0.10;;;0.10;;
20593;SDS011;10455;48.732;10.266;2023-04-28T09:56:45;0.10;;;0.10;;
20593;SDS011;10455;48.732;10.266;2023-04-28T10:01:49;0.10;;;0.10;;
20593;SDS011;10455;48.732;10.266;2023-04-28T10:06:52;0.20;;;0.20;;
20593;SDS011;10455;48.732;10.266;2023-04-28T10:11:54;0.20;;;0.20;;
20593;SDS011;10455;48.732;10.266;2023-04-28T10:16:58;0.20;;;0.20;;
20593;SDS011;10455;48.732;10.266;2023-04-28T10:22:06;0.20;;;0.20;;
20593;SDS011;10455;48.732;10.266;2023-04-28T10:27:28;0.10;;;0.10;;
20593;SDS011;10455;48.732;10.266;2023-04-28T10:32:32;0.10;;;0.10;;
20593;SDS011;10455;48.732;10.266;2023-04-28T10:43:04;0.10;;;0.10;;
20593;SDS011;10455;48.732;10.266;2023-04-28T10:48:07;0.52;;;0.52;;
20593;SDS011;10455;48.732;10.266;2023-04-28T10:53:09;0.10;;;0.10;;
20593;SDS011;10455;48.732;10.266;2023-04-28T10:58:30;0.10;;;0.10;;
20593;SDS011;10455;48.732;10.266;2023-04-28T11:03:43;0.20;;;0.20;;
20593;SDS011;10455;48.732;10.266;2023-04-28T11:08:50;0.20;;;0.20;;
20593;SDS011;10455;48.732;10.266;2023-04-28T11:13:53;0.20;;;0.20;;
20593;SDS011;10455;48.732;10.266;2023-04-28T11:18:58;0.20;;;0.20;;
20593;SDS011;10455;48.732;10.266;2023-04-28T11:24:07;0.20;;;0.20;;
20593;SDS011;10455;48.732;10.266;2023-04-28T11:29:11;0.20;;;0.20;;
20593;SDS011;10455;48.732;10.266;2023-04-28T11:34:17;0.28;;;0.28;;
20593;SDS011;10455;48.732;10.266;2023-04-28T11:39:24;0.20;;;0.20;;
20593;SDS011;10455;48.732;10.266;2023-04-28T11:44:29;0.20;;;0.20;;
20593;SDS011;10455;48.732;10.266;2023-04-28T11:49:41;0.20;;;0.20;;
20593;SDS011;10455;48.732;10.266;2023-04-28T11:54:44;4.47;;;4.05;;
20593;SDS011;10455;48.732;10.266;2023-04-28T11:59:53;0.20;;;0.20;;
20593;SDS011;10455;48.732;10.266;2023-04-28T12:05:13;0.25;;;0.25;;
20593;SDS011;10455;48.732;10.266;2023-04-28T12:10:15;0.20;;;0.20;;
20593;SDS011;10455;48.732;10.266;2023-04-28T12:15:17;0.20;;;0.20;;
20593;SDS011;10455;48.732;10.266;2023-04-28T12:20:33;0.30;;;0.30;;
20593;SDS011;10455;48.732;10.266;2023-04-28T12:25:42;0.30;;;0.30;;
20593;SDS011;10455;48.732;10.266;2023-04-28T12:30:44;0.50;;;0.50;;
20593;SDS011;10455;48.732;10.266;2023-04-28T12:35:47;0.50;;;0.50;;
20593;SDS011;10455;48.732;10.266;2023-04-28T12:40:50;0.60;;;0.60;;
20593;SDS011;10455;48.732;10.266;2023-04-28T12:45:52;0.60;;;0.60;;
20593;SDS011;10455;48.732;10.266;2023-04-28T12:50:56;0.60;;;0.60;;
20593;SDS011;10455;48.732;10.266;2023-04-28T12:55:58;0.70;;;0.70;;
20593;SDS011;10455;48.732;10.266;2023-04-28T13:01:00;0.70;;;0.70;;
20593;SDS011;10455;48.732;10.266;2023-04-28T13:06:04;0.70;;;0.70;;
20593;SDS011;10455;48.732;10.266;2023-04-28T13:11:06;0.80;;;0.80;;
20593;SDS011;10455;48.732;10.266;2023-04-28T13:16:09;0.80;;;0.80;;
20593;SDS011;10455;48.732;10.266;2023-04-28T13:21:12;0.57;;;0.57;;
20593;SDS011;10455;48.732;10.266;2023-04-28T13:26:14;0.60;;;0.60;;
20593;SDS011;10455;48.732;10.266;2023-04-28T13:31:30;0.50;;;0.50;;
20593;SDS011;10455;48.732;10.266;2023-04-28T13:42:14;0.68;;;0.68;;
20593;SDS011;10455;48.732;10.266;2023-04-28T13:47:19;0.60;;;0.60;;
20593;SDS011;10455;48.732;10.266;2023-04-28T13:52:28;0.60;;;0.60;;
20593;SDS011;10455;48.732;10.266;2023-04-28T13:57:37;0.60;;;0.60;;
20593;SDS011;10455;48.732;10.266;2023-04-28T14:02:43;0.50;;;0.50;;
20593;SDS011;10455;48.732;10.266;2023-04-28T14:07:52;0.50;;;0.50;;
20593;SDS011;10455;48.732;10.266;2023-04-28T14:13:02;0.50;;;0.50;;
20593;SDS011;10455;48.732;10.266;2023-04-28T14:18:08;0.47;;;0.47;;
20593;SDS011;10455;48.732;10.266;2023-04-28T14:23:28;0.50;;;0.50;;
20593;SDS011;10455;48.732;10.266;2023-04-28T14:28:31;0.47;;;0.47;;
20593;SDS011;10455;48.732;10.266;2023-04-28T14:33:33;0.50;;;0.50;;
20593;SDS011;10455;48.732;10.266;2023-04-28T14:38:37;0.50;;;0.50;;
20593;SDS011;10455;48.732;10.266;2023-04-28T14:43:39;0.50;;;0.50;;
20593;SDS011;10455;48.732;10.266;2023-04-28T14:48:41;0.47;;;0.47;;
20593;SDS011;10455;48.732;10.266;2023-04-28T14:53:44;0.40;;;0.40;;
20593;SDS011;10455;48.732;10.266;2023-04-28T14:58:47;0.50;;;0.50;;
20593;SDS011;10455;48.732;10.266;2023-04-28T15:03:49;0.40;;;0.40;;
20593;SDS011;10455;48.732;10.266;2023-04-28T15:08:52;0.40;;;0.40;;
20593;SDS011;10455;48.732;10.266;2023-04-28T15:13:54;0.50;;;0.50;;
20593;SDS011;10455;48.732;10.266;2023-04-28T15:18:56;0.50;;;0.50;;
20593;SDS011;10455;48.732;10.266;2023-04-28T15:23:59;0.50;;;0.50;;
20593;SDS011;10455;48.732;10.266;2023-04-28T15:29:01;0.50;;;0.50;;
20593;SDS011;10455;48.732;10.266;2023-04-28T15:34:03;0.50;;;0.50;;
20593;SDS011;10455;48.732;10.266;2023-04-28T15:39:06;0.50;;;0.50;;
20593;SDS011;10455;48.732;10.266;2023-04-28T15:44:09;0.50;;;0.50;;
20593;SDS011;10455;48.732;10.266;2023-04-28T15:49:14;0.60;;;0.60;;
20593;SDS011;10455;48.732;10.266;2023-04-28T15:54:18;0.50;;;0.50;;
20593;SDS011;10455;48.732;10.266;2023-04-28T15:59:21;0.68;;;0.68;;
20593;SDS011;10455;48.732;10.266;2023-04-28T16:04:23;0.70;;;0.70;;
20593;SDS011;10455;48.732;10.266;2023-04-28T16:09:26;0.75;;;0.75;;
20593;SDS011;10455;48.732;10.266;2023-04-28T16:14:29;0.60;;;0.60;;
20593;SDS011;10455;48.732;10.266;2023-04-28T16:19:31;0.70;;;0.70;;
20593;SDS011;10455;48.732;10.266;2023-04-28T16:24:35;0.60;;;0.60;;
20593;SDS011;10455;48.732;10.266;2023-04-28T16:29:41;0.63;;;0.63;;
20593;SDS011;10455;48.732;10.266;2023-04-28T16:34:44;0.50;;;0.50;;
20593;SDS011;10455;48.732;10.266;2023-04-28T16:39:49;0.50;;;0.50;;
20593;SDS011;10455;48.732;10.266;2023-04-28T16:44:51;0.50;;;0.50;;
20593;SDS011;10455;48.732;10.266;2023-04-28T16:49:53;3.30;;;3.05;;
20593;SDS011;10455;48.732;10.266;2023-04-28T16:54:57;0.50;;;0.50;;
20593;SDS011;10455;48.732;10.266;2023-04-28T16:59:59;0.50;;;0.50;;
20593;SDS011;10455;48.732;10.266;2023-04-28T17:05:01;0.50;;;0.50;;
20593;SDS011;10455;48.732;10.266;2023-04-28T17:10:05;0.50;;;0.50;;
20593;SDS011;10455;48.732;10.266;2023-04-28T17:15:08;0.73;;;0.73;;
20593;SDS011;10455;48.732;10.266;2023-04-28T17:20:16;0.95;;;0.95;;
20593;SDS011;10455;48.732;10.266;2023-04-28T17:25:21;0.70;;;0.70;;
20593;SDS011;10455;48.732;10.266;2023-04-28T17:30:23;0.30;;;0.30;;
20593;SDS011;10455;48.732;10.266;2023-04-28T17:35:25;0.20;;;0.20;;
20593;SDS011;10455;48.732;10.266;2023-04-28T17:40:29;0.20;;;0.20;;
20593;SDS011;10455;48.732;10.266;2023-04-28T17:45:31;0.30;;;0.30;;
20593;SDS011;10455;48.732;10.266;2023-04-28T17:50:33;0.23;;;0.23;;
20593;SDS011;10455;48.732;10.266;2023-04-28T17:55:36;0.20;;;0.20;;
20593;SDS011;10455;48.732;10.266;2023-04-28T18:00:39;0.30;;;0.30;;
20593;SDS011;10455;48.732;10.266;2023-04-28T18:05:41;0.20;;;0.20;;
20593;SDS011;10455;48.732;10.266;2023-04-28T18:10:44;0.27;;;0.27;;
20593;SDS011;10455;48.732;10.266;2023-04-28T18:15:46;0.30;;;0.30;;
20593;SDS011;10455;48.732;10.266;2023-04-28T18:20:48;0.20;;;0.20;;
20593;SDS011;10455;48.732;10.266;2023-04-28T18:25:58;2.20;;;0.90;;
20593;SDS011;10455;48.732;10.266;2023-04-28T18:31:02;0.30;;;0.30;;
20593;SDS011;10455;48.732;10.266;2023-04-28T18:36:06;0.20;;;0.20;;
20593;SDS011;10455;48.732;10.266;2023-04-28T18:41:12;0.30;;;0.30;;
20593;SDS011;10455;48.732;10.266;2023-04-28T18:46:14;0.30;;;0.30;;
20593;SDS011;10455;48.732;10.266;2023-04-28T18:51:17;0.30;;;0.30;;
20593;SDS011;10455;48.732;10.266;2023-04-28T18:56:20;0.20;;;0.20;;
20593;SDS011;10455;48.732;10.266;2023-04-28T19:01:23;0.20;;;0.20;;
20593;SDS011;10455;48.732;10.266;2023-04-28T19:06:26;28.63;;;17.83;;
20593;SDS011;10455;48.732;10.266;2023-04-28T19:11:30;0.30;;;0.30;;
20593;SDS011;10455;48.732;10.266;2023-04-28T19:16:32;0.93;;;0.93;;
20593;SDS011;10455;48.732;10.266;2023-04-28T19:21:38;0.30;;;0.30;;
20593;SDS011;10455;48.732;10.266;2023-04-28T19:26:43;0.30;;;0.30;;
20593;SDS011;10455;48.732;10.266;2023-04-28T19:31:45;0.20;;;0.20;;
20593;SDS011;10455;48.732;10.266;2023-04-28T19:36:49;0.20;;;0.20;;
20593;SDS011;10455;48.732;10.266;2023-04-28T19:41:52;0.20;;;0.20;;
20593;SDS011;10455;48.732;10.266;2023-04-28T19:46:54;0.30;;;0.30;;
20593;SDS011;10455;48.732;10.266;2023-04-28T19:51:56;0.20;;;0.20;;
20593;SDS011;10455;48.732;10.266;2023-04-28T19:57:00;0.20;;;0.20;;
20593;SDS011;10455;48.732;10.266;2023-04-28T20:02:02;0.40;;;0.40;;
20593;SDS011;10455;48.732;10.266;2023-04-28T20:07:07;0.20;;;0.20;;
20593;SDS011;10455;48.732;10.266;2023-04-28T20:12:11;0.20;;;0.20;;
20593;SDS011;10455;48.732;10.266;2023-04-28T20:17:14;1.33;;;0.87;;
20593;SDS011;10455;48.732;10.266;2023-04-28T20:22:17;0.20;;;0.20;;
20593;SDS011;10455;48.732;10.266;2023-04-28T20:27:21;0.20;;;0.20;;
20593;SDS011;10455;48.732;10.266;2023-04-28T20:32:23;1.03;;;1.03;;
20593;SDS011;10455;48.732;10.266;2023-04-28T20:37:25;0.20;;;0.20;;
20593;SDS011;10455;48.732;10.266;2023-04-28T20:42:30;0.20;;;0.20;;
20593;SDS011;10455;48.732;10.266;2023-04-28T20:47:33;0.20;;;0.20;;
20593;SDS011;10455;48.732;10.266;2023-04-28T20:52:35;0.20;;;0.20;;
20593;SDS011;10455;48.732;10.266;2023-04-28T20:57:39;0.10;;;0.10;;
20593;SDS011;10455;48.732;10.266;2023-04-28T21:02:41;0.20;;;0.20;;
20593;SDS011;10455;48.732;10.266;2023-04-28T21:07:44;0.20;;;0.20;;
20593;SDS011;10455;48.732;10.266;2023-04-28T21:12:48;0.20;;;0.20;;
20593;SDS011;10455;48.732;10.266;2023-04-28T21:17:50;0.30;;;0.30;;
20593;SDS011;10455;48.732;10.266;2023-04-28T21:22:52;4.33;;;1.27;;
20593;SDS011;10455;48.732;10.266;2023-04-28T21:27:55;0.43;;;0.43;;
20593;SDS011;10455;48.732;10.266;2023-04-28T21:32:57;0.20;;;0.20;;
20593;SDS011;10455;48.732;10.266;2023-04-28T21:38:00;1.27;;;1.20;;
20593;SDS011;10455;48.732;10.266;2023-04-28T21:43:03;1.53;;;1.53;;
20593;SDS011;10455;48.732;10.266;2023-04-28T21:48:06;0.20;;;0.20;;
20593;SDS011;10455;48.732;10.266;2023-04-28T21:53:08;0.20;;;0.20;;
20593;SDS011;10455;48.732;10.266;2023-04-28T21:58:11;0.30;;;0.30;;
20593;SDS011;10455;48.732;10.266;2023-04-28T22:03:14;0.10;;;0.10;;
20593;SDS011;10455;48.732;10.266;2023-04-28T22:08:16;0.10;;;0.10;;
20593;SDS011;10455;48.732;10.266;2023-04-28T22:13:20;0.20;;;0.20;;
20593;SDS011;10455;48.732;10.266;2023-04-28T22:18:22;0.30;;;0.30;;
20593;SDS011;10455;48.732;10.266;2023-04-28T22:23:24;0.20;;;0.20;;
20593;SDS011;10455;48.732;10.266;2023-04-28T22:28:28;0.20;;;0.20;;
20593;SDS011;10455;48.732;10.266;2023-04-28T22:33:30;0.20;;;0.20;;
20593;SDS011;10455;48.732;10.266;2023-04-28T22:38:32;0.20;;;0.20;;
20593;SDS011;10455;48.732;10.266;2023-04-28T22:43:36;0.20;;;0.20;;
20593;SDS011;10455;48.732;10.266;2023-04-28T22:48:38;0.20;;;0.20;;
20593;SDS011;10455;48.732;10.266;2023-04-28T22:53:40;0.20;;;0.20;;
20593;SDS011;10455;48.732;10.266;2023-04-28T22:58:44;0.20;;;0.20;;
20593;SDS011;10455;48.732;10.266;2023-04-28T23:03:47;0.10;;;0.10;;
20593;SDS011;10455;48.732;10.266;2023-04-28T23:08:50;0.30;;;0.30;;
20593;SDS011;10455;48.732;10.266;2023-04-28T23:13:54;0.20;;;0.20;;
20593;SDS011;10455;48.732;10.266;2023-04-28T23:18:56;0.20;;;0.20;;
20593;SDS011;10455;48.732;10.266;2023-04-28T23:23:58;0.37;;;0.37;;
20593;SDS011;10455;48.732;10.266;2023-04-28T23:29:02;0.20;;;0.20;;
20593;SDS011;10455;48.732;10.266;2023-04-28T23:34:04;0.20;;;0.20;;
20593;SDS011;10455;48.732;10.266;2023-04-28T23:39:06;0.20;;;0.20;;
20593;SDS011;10455;48.732;10.266;2023-04-28T23:44:09;1.40;;;1.37;;
20593;SDS011;10455;48.732;10.266;2023-04-28T23:49:12;0.27;;;0.27;;
20593;SDS011;10455;48.732;10.266;2023-04-28T23:54:15;0.20;;;0.20;;
20593;SDS011;10455;48.732;10.266;2023-04-28T23:59:18;0.20;;;0.20;;
